sensor_id;sensor_type;location;lat;lon;timestamp;P1;durP1;ratioP1;P2;durP2;ratioP2
34471;SDS011;20710;49.976;19.836;2022-08-21T00:01:34;19.48;;;13.65;;
34471;SDS011;20710;49.976;19.836;2022-08-21T00:07:36;19.12;;;13.35;;
34471;SDS011;20710;49.976;19.836;2022-08-21T00:13:38;19.60;;;13.00;;
34471;SDS011;20710;49.976;19.836;2022-08-21T00:19:40;17.48;;;13.18;;
34471;SDS011;20710;49.976;19.836;2022-08-21T00:25:42;18.40;;;12.75;;
34471;SDS011;20710;49.976;19.836;2022-08-21T00:31:44;20.77;;;13.93;;
34471;SDS011;20710;49.976;19.836;2022-08-21T00:37:46;22.67;;;13.05;;
34471;SDS011;20710;49.976;19.836;2022-08-21T00:43:48;18.77;;;13.38;;
34471;SDS011;20710;49.976;19.836;2022-08-21T00:49:50;17.45;;;12.80;;
34471;SDS011;20710;49.976;19.836;2022-08-21T00:55:52;16.57;;;12.50;;
34471;SDS011;20710;49.976;19.836;2022-08-21T01:01:54;20.50;;;13.35;;
34471;SDS011;20710;49.976;19.836;2022-08-21T01:07:56;15.70;;;12.30;;
34471;SDS011;20710;49.976;19.836;2022-08-21T01:13:57;15.25;;;12.07;;
34471;SDS011;20710;49.976;19.836;2022-08-21T01:20:00;14.15;;;12.25;;
34471;SDS011;20710;49.976;19.836;2022-08-21T01:26:07;17.65;;;12.90;;
34471;SDS011;20710;49.976;19.836;2022-08-21T01:32:10;16.65;;;13.55;;
34471;SDS011;20710;49.976;19.836;2022-08-21T01:44:19;19.98;;;12.30;;
34471;SDS011;20710;49.976;19.836;2022-08-21T01:50:22;24.92;;;16.87;;
34471;SDS011;20710;49.976;19.836;2022-08-21T01:56:24;22.00;;;15.40;;
34471;SDS011;20710;49.976;19.836;2022-08-21T04:27:51;14.07;;;9.58;;
34471;SDS011;20710;49.976;19.836;2022-08-21T04:33:52;16.37;;;10.20;;
34471;SDS011;20710;49.976;19.836;2022-08-21T04:39:55;15.58;;;10.60;;
34471;SDS011;20710;49.976;19.836;2022-08-21T04:45:58;15.65;;;11.12;;
34471;SDS011;20710;49.976;19.836;2022-08-21T04:52:01;20.95;;;12.35;;
34471;SDS011;20710;49.976;19.836;2022-08-21T04:58:06;22.80;;;12.58;;
34471;SDS011;20710;49.976;19.836;2022-08-21T05:04:13;18.35;;;13.25;;
34471;SDS011;20710;49.976;19.836;2022-08-21T05:10:18;21.42;;;12.82;;
34471;SDS011;20710;49.976;19.836;2022-08-21T05:16:20;17.73;;;12.47;;
34471;SDS011;20710;49.976;19.836;2022-08-21T05:22:22;20.60;;;13.48;;
34471;SDS011;20710;49.976;19.836;2022-08-21T05:28:25;21.20;;;15.75;;
34471;SDS011;20710;49.976;19.836;2022-08-21T05:34:28;24.52;;;16.80;;
34471;SDS011;20710;49.976;19.836;2022-08-21T05:40:29;22.40;;;14.47;;
34471;SDS011;20710;49.976;19.836;2022-08-21T05:46:32;23.27;;;15.88;;
34471;SDS011;20710;49.976;19.836;2022-08-21T05:52:34;32.33;;;19.10;;
34471;SDS011;20710;49.976;19.836;2022-08-21T05:58:35;25.40;;;16.50;;
34471;SDS011;20710;49.976;19.836;2022-08-21T06:04:37;33.58;;;21.75;;
34471;SDS011;20710;49.976;19.836;2022-08-21T06:10:40;35.80;;;21.65;;
34471;SDS011;20710;49.976;19.836;2022-08-21T06:16:42;30.72;;;19.62;;
34471;SDS011;20710;49.976;19.836;2022-08-21T06:22:43;34.10;;;21.27;;
34471;SDS011;20710;49.976;19.836;2022-08-21T06:28:44;31.57;;;18.48;;
34471;SDS011;20710;49.976;19.836;2022-08-21T06:34:46;27.10;;;18.77;;
34471;SDS011;20710;49.976;19.836;2022-08-21T06:40:47;25.68;;;19.95;;
34471;SDS011;20710;49.976;19.836;2022-08-21T06:46:49;28.73;;;19.73;;
34471;SDS011;20710;49.976;19.836;2022-08-21T06:52:57;31.68;;;21.27;;
34471;SDS011;20710;49.976;19.836;2022-08-21T06:59:02;34.83;;;20.60;;
34471;SDS011;20710;49.976;19.836;2022-08-21T07:05:04;33.42;;;21.60;;
34471;SDS011;20710;49.976;19.836;2022-08-21T07:11:09;36.28;;;22.27;;
34471;SDS011;20710;49.976;19.836;2022-08-21T07:17:19;39.55;;;22.42;;
34471;SDS011;20710;49.976;19.836;2022-08-21T07:23:22;42.78;;;23.90;;
34471;SDS011;20710;49.976;19.836;2022-08-21T07:29:29;36.70;;;23.05;;
34471;SDS011;20710;49.976;19.836;2022-08-21T07:35:30;41.83;;;26.30;;
34471;SDS011;20710;49.976;19.836;2022-08-21T07:41:34;40.55;;;24.57;;
34471;SDS011;20710;49.976;19.836;2022-08-21T07:47:36;40.55;;;24.37;;
34471;SDS011;20710;49.976;19.836;2022-08-21T07:53:38;40.75;;;25.08;;
34471;SDS011;20710;49.976;19.836;2022-08-21T07:59:39;38.70;;;22.85;;
34471;SDS011;20710;49.976;19.836;2022-08-21T08:05:41;38.65;;;23.70;;
34471;SDS011;20710;49.976;19.836;2022-08-21T08:11:42;45.83;;;24.12;;
34471;SDS011;20710;49.976;19.836;2022-08-21T08:17:44;35.60;;;23.77;;
34471;SDS011;20710;49.976;19.836;2022-08-21T08:23:48;42.80;;;24.07;;
34471;SDS011;20710;49.976;19.836;2022-08-21T08:29:50;44.75;;;24.70;;
34471;SDS011;20710;49.976;19.836;2022-08-21T08:35:51;40.23;;;24.25;;
34471;SDS011;20710;49.976;19.836;2022-08-21T08:41:57;35.75;;;24.75;;
34471;SDS011;20710;49.976;19.836;2022-08-21T08:48:36;41.50;;;25.20;;
34471;SDS011;20710;49.976;19.836;2022-08-21T08:54:45;40.48;;;24.37;;
34471;SDS011;20710;49.976;19.836;2022-08-21T09:00:59;35.75;;;24.30;;
34471;SDS011;20710;49.976;19.836;2022-08-21T09:13:55;34.53;;;23.05;;
34471;SDS011;20710;49.976;19.836;2022-08-21T09:20:21;35.48;;;24.47;;
34471;SDS011;20710;49.976;19.836;2022-08-21T09:33:07;32.03;;;22.58;;
34471;SDS011;20710;49.976;19.836;2022-08-21T09:39:13;40.08;;;24.15;;
34471;SDS011;20710;49.976;19.836;2022-08-21T09:45:28;31.57;;;21.95;;
34471;SDS011;20710;49.976;19.836;2022-08-21T09:51:31;31.77;;;22.27;;
34471;SDS011;20710;49.976;19.836;2022-08-21T09:57:36;31.57;;;23.47;;
34471;SDS011;20710;49.976;19.836;2022-08-21T10:03:40;34.65;;;24.12;;
34471;SDS011;20710;49.976;19.836;2022-08-21T10:09:41;33.38;;;23.73;;
34471;SDS011;20710;49.976;19.836;2022-08-21T10:28:30;25.08;;;17.75;;
34471;SDS011;20710;49.976;19.836;2022-08-21T10:35:35;10.10;;;7.33;;
34471;SDS011;20710;49.976;19.836;2022-08-21T10:41:21;11.08;;;3.83;;
34471;SDS011;20710;49.976;19.836;2022-08-21T10:47:48;5.40;;;3.10;;
34471;SDS011;20710;49.976;19.836;2022-08-21T10:54:55;5.05;;;2.72;;
34471;SDS011;20710;49.976;19.836;2022-08-21T11:00:14;8.73;;;2.70;;
34471;SDS011;20710;49.976;19.836;2022-08-21T11:06:23;4.37;;;2.20;;
34471;SDS011;20710;49.976;19.836;2022-08-21T11:12:31;5.17;;;2.60;;
34471;SDS011;20710;49.976;19.836;2022-08-21T11:18:49;3.62;;;2.12;;
34471;SDS011;20710;49.976;19.836;2022-08-21T11:44:46;4.92;;;1.72;;
34471;SDS011;20710;49.976;19.836;2022-08-21T11:50:59;4.42;;;2.62;;
34471;SDS011;20710;49.976;19.836;2022-08-21T11:57:08;3.40;;;2.22;;
34471;SDS011;20710;49.976;19.836;2022-08-21T12:03:21;4.72;;;2.22;;
34471;SDS011;20710;49.976;19.836;2022-08-21T12:09:29;4.12;;;2.35;;
34471;SDS011;20710;49.976;19.836;2022-08-21T12:15:33;4.92;;;3.05;;
34471;SDS011;20710;49.976;19.836;2022-08-21T12:28:02;5.33;;;2.67;;
34471;SDS011;20710;49.976;19.836;2022-08-21T12:34:14;5.30;;;2.80;;
34471;SDS011;20710;49.976;19.836;2022-08-21T12:40:37;3.75;;;3.35;;
34471;SDS011;20710;49.976;19.836;2022-08-21T12:46:46;3.50;;;2.35;;
34471;SDS011;20710;49.976;19.836;2022-08-21T12:53:10;4.33;;;2.70;;
34471;SDS011;20710;49.976;19.836;2022-08-21T12:59:31;4.62;;;2.62;;
34471;SDS011;20710;49.976;19.836;2022-08-21T13:05:35;3.27;;;2.40;;
34471;SDS011;20710;49.976;19.836;2022-08-21T13:11:39;4.12;;;3.00;;
34471;SDS011;20710;49.976;19.836;2022-08-21T13:17:46;3.25;;;2.62;;
34471;SDS011;20710;49.976;19.836;2022-08-21T13:23:49;3.30;;;2.60;;
34471;SDS011;20710;49.976;19.836;2022-08-21T13:30:00;3.08;;;2.35;;
34471;SDS011;20710;49.976;19.836;2022-08-21T13:36:10;3.72;;;2.80;;
34471;SDS011;20710;49.976;19.836;2022-08-21T13:42:18;4.08;;;3.00;;
34471;SDS011;20710;49.976;19.836;2022-08-21T13:48:26;5.20;;;3.05;;
34471;SDS011;20710;49.976;19.836;2022-08-21T13:54:34;3.70;;;2.85;;
34471;SDS011;20710;49.976;19.836;2022-08-21T14:00:48;4.28;;;3.17;;
34471;SDS011;20710;49.976;19.836;2022-08-21T14:06:51;6.25;;;3.90;;
34471;SDS011;20710;49.976;19.836;2022-08-21T14:13:07;3.60;;;2.92;;
34471;SDS011;20710;49.976;19.836;2022-08-21T14:31:30;3.85;;;2.20;;
34471;SDS011;20710;49.976;19.836;2022-08-21T14:37:34;3.77;;;1.92;;
34471;SDS011;20710;49.976;19.836;2022-08-21T14:43:37;2.83;;;2.00;;
34471;SDS011;20710;49.976;19.836;2022-08-21T14:49:38;2.85;;;2.08;;
34471;SDS011;20710;49.976;19.836;2022-08-21T14:55:40;2.45;;;2.25;;
34471;SDS011;20710;49.976;19.836;2022-08-21T15:02:00;2.45;;;2.25;;
34471;SDS011;20710;49.976;19.836;2022-08-21T15:08:05;2.60;;;2.40;;
34471;SDS011;20710;49.976;19.836;2022-08-21T15:14:06;3.05;;;2.67;;
34471;SDS011;20710;49.976;19.836;2022-08-21T15:20:12;3.90;;;3.20;;
34471;SDS011;20710;49.976;19.836;2022-08-21T15:26:14;5.45;;;3.62;;
34471;SDS011;20710;49.976;19.836;2022-08-21T15:32:18;5.97;;;4.85;;
34471;SDS011;20710;49.976;19.836;2022-08-21T15:38:28;5.25;;;4.60;;
34471;SDS011;20710;49.976;19.836;2022-08-21T15:44:29;5.17;;;4.40;;
34471;SDS011;20710;49.976;19.836;2022-08-21T15:50:31;5.83;;;4.37;;
34471;SDS011;20710;49.976;19.836;2022-08-21T15:56:36;7.20;;;4.37;;
34471;SDS011;20710;49.976;19.836;2022-08-21T16:02:42;5.90;;;4.08;;
34471;SDS011;20710;49.976;19.836;2022-08-21T16:08:49;6.40;;;4.30;;
34471;SDS011;20710;49.976;19.836;2022-08-21T16:14:56;6.83;;;4.42;;
34471;SDS011;20710;49.976;19.836;2022-08-21T16:20:59;5.00;;;4.45;;
34471;SDS011;20710;49.976;19.836;2022-08-21T16:27:01;7.85;;;4.80;;
34471;SDS011;20710;49.976;19.836;2022-08-21T16:33:03;6.87;;;4.45;;
34471;SDS011;20710;49.976;19.836;2022-08-21T16:39:06;5.97;;;4.45;;
34471;SDS011;20710;49.976;19.836;2022-08-21T16:45:09;7.72;;;5.08;;
